Terminal Aerodrome Forecast
Issued by NWS

Home | Current Version | Previous Version | Text Only | Print | Product List | Glossary On
Versions: 1 2 3 4 5 6 7 8 9 10 11 12 13 14 15
000
FTUS42 TJSJ 261736
TAFJBQ
TAF
TJBQ 261736Z 2618/2718 05008KT P6SM VCTS SCT022CB BKN040 BKN050
      TEMPO 2618/2621 VRB15G22KT 2SM +TSRA BKN022CB OVC040
     FM262300 14004KT P6SM SCT040 BKN080
     FM271400 06013KT P6SM SCT025 SCT080
      AMD NOT SKED 2702/2711=

USA.gov is the U.S. government's official web portal to all federal, state and local government web resources and services.